Time;durP1;ratioP1;P1;durP2;ratioP2;P2;SDS_P1;SDS_P2;PMS_P1;PMS_P2;Temp;Humidity;BMP_temperature;BMP_pressure;BME280_temperature;BME280_humidity;BME280_pressure;Samples;Min_cycle;Max_cycle;Signal;HPM_P1;HPM_P2
2022/03/07 00:00:24;;;;;;;;;;;;;;;21.41;40.63;102620.66;7284242;19;152252;-53
2022/03/07 00:02:51;;;;;;;;;;;;;;;21.36;40.90;102615.88;7281172;19;155901;-53
2022/03/07 00:05:19;;;;;;;;;;;;;;;21.33;40.89;102616.44;7283053;19;154037;-53
2022/03/07 00:07:45;;;;;;;;;;;;;;;21.32;40.67;102611.91;7289148;19;151784;-53
2022/03/07 00:10:12;;;;;;;;;;;;;;;21.30;41.08;102616.97;7282563;19;153158;-54
2022/03/07 00:12:39;;;;;;;;;;;;;;;21.26;40.82;102613.84;7282982;19;151832;-53
2022/03/07 00:15:07;;;;;;;;;;;;;;;21.23;41.16;102614.41;7283015;19;153413;-54
2022/03/07 00:17:36;;;;;;;;;;;;;;;21.21;41.26;102621.44;7282762;19;156283;-54
2022/03/07 00:20:04;;;;;;;;;;;;;;;21.21;41.12;102613.00;7282621;19;152445;-53
2022/03/07 00:22:31;;;;;;;;;;;;;;;21.19;41.20;102618.03;7283397;19;152694;-54
2022/03/07 00:24:58;;;;;;;;;;;;;;;21.15;41.77;102614.06;7281577;19;153377;-54
2022/03/07 00:27:24;;;;;;;;;;;;;;;21.14;41.62;102613.22;7281433;19;151884;-54
2022/03/07 00:29:51;;;;;;;;;;;;;;;21.11;41.75;102607.28;7286555;19;153088;-54
2022/03/07 00:32:18;;;;;;;;;;;;;;;21.04;41.73;102610.31;7278651;19;152050;-54
2022/03/07 00:34:45;;;;;;;;;;;;;;;21.05;41.62;102608.34;7280502;19;152976;-54
2022/03/07 00:37:13;;;;;;;;;;;;;;;21.01;42.31;102610.03;7279346;19;155306;-53
2022/03/07 00:39:40;;;;;;;;;;;;;;;21.02;41.92;102612.56;7280319;19;151955;-53
2022/03/07 00:42:07;;;;;;;;;;;;;;;21.04;42.28;102612.28;7280729;19;153414;-54
2022/03/07 00:44:34;;;;;;;;;;;;;;;20.98;41.68;102610.56;7282600;19;153324;-53
2022/03/07 00:47:01;;;;;;;;;;;;;;;20.95;42.01;102617.56;7283122;19;151793;-53
2022/03/07 00:49:28;;;;;;;;;;;;;;;20.90;42.45;102614.72;7282669;19;153292;-53
2022/03/07 00:51:56;;;;;;;;;;;;;;;20.89;42.06;102609.38;7289336;19;153359;-54
2022/03/07 00:54:22;;;;;;;;;;;;;;;20.86;42.41;102613.56;7278372;19;153384;-53
2022/03/07 00:56:49;;;;;;;;;;;;;;;20.85;42.31;102609.06;7279222;19;152627;-54
2022/03/07 00:59:16;;;;;;;;;;;;;;;20.82;42.09;102604.84;7282966;19;151684;-54
2022/03/07 01:01:43;;;;;;;;;;;;;;;20.79;41.86;102605.38;7280131;19;153058;-54
2022/03/07 01:04:13;;;;;;;;;;;;;;;20.76;42.23;102607.88;7279516;19;154438;-53
2022/03/07 01:06:40;;;;;;;;;;;;;;;20.73;42.07;102602.78;7278338;19;152151;-54
2022/03/07 01:09:07;;;;;;;;;;;;;;;20.70;42.14;102609.81;7282348;19;152642;-54
2022/03/07 01:11:35;;;;;;;;;;;;;;;20.67;42.36;102610.34;7280719;19;152144;-54
2022/03/07 01:14:02;;;;;;;;;;;;;;;20.64;41.95;102605.25;7286209;19;151836;-53
2022/03/07 01:16:29;;;;;;;;;;;;;;;20.63;42.14;102614.78;7278786;19;153736;-53
2022/03/07 01:18:56;;;;;;;;;;;;;;;20.61;42.25;102605.81;7282189;19;151649;-54
2022/03/07 01:21:23;;;;;;;;;;;;;;;20.57;42.22;102606.63;7280696;19;152725;-53
2022/03/07 01:23:50;;;;;;;;;;;;;;;20.55;42.47;102606.88;7279529;19;153677;-53
2022/03/07 01:26:19;;;;;;;;;;;;;;;20.55;42.51;102601.25;7282328;19;151828;-54
2022/03/07 01:28:46;;;;;;;;;;;;;;;20.52;42.42;102607.41;7281086;19;152839;-54
2022/03/07 01:31:13;;;;;;;;;;;;;;;20.50;42.09;102601.22;7278456;19;154323;-53
2022/03/07 01:33:41;;;;;;;;;;;;;;;20.46;42.60;102597.25;7280251;19;151830;-54
2022/03/07 01:36:08;;;;;;;;;;;;;;;20.43;42.21;102592.19;7288638;19;152889;-53
2022/03/07 01:38:35;;;;;;;;;;;;;;;20.47;42.56;102589.69;7282128;19;151561;-54
2022/03/07 01:41:02;;;;;;;;;;;;;;;20.41;42.47;102588.78;7280862;19;153140;-54
2022/03/07 01:43:29;;;;;;;;;;;;;;;20.37;42.37;102594.09;7277972;19;153941;-53
2022/03/07 01:45:56;;;;;;;;;;;;;;;20.34;42.49;102589.03;7279270;19;151507;-53
2022/03/07 01:48:25;;;;;;;;;;;;;;;20.32;42.37;102590.38;7279197;19;153317;-54
2022/03/07 01:50:52;;;;;;;;;;;;;;;20.32;42.46;102585.63;7279755;19;153234;-53
2022/03/07 01:53:20;;;;;;;;;;;;;;;20.35;42.40;102590.69;7278983;19;151943;-53
2022/03/07 01:55:47;;;;;;;;;;;;;;;20.32;42.23;102581.97;7278799;19;153661;-53
2022/03/07 01:58:18;;;;;;;;;;;;;;;20.27;42.76;102581.88;7283909;19;154376;-53
2022/03/07 02:00:47;;;;;;;;;;;;;;;20.23;42.66;102567.53;7279662;19;153218;-54
2022/03/07 02:03:14;;;;;;;;;;;;;;;20.22;42.47;102579.03;7278883;19;153815;-53
2022/03/07 02:05:41;;;;;;;;;;;;;;;20.20;42.62;102575.66;7278808;19;151544;-54
2022/03/07 02:08:08;;;;;;;;;;;;;;;20.15;43.00;102572.78;7277520;19;152685;-54
2022/03/07 02:10:36;;;;;;;;;;;;;;;20.15;42.94;102556.81;7277473;19;155130;-54
2022/03/07 02:13:09;;;;;;;;;;;;;;;20.12;42.98;102562.97;7277913;19;151890;-54
2022/03/07 02:15:36;;;;;;;;;;;;;;;20.15;42.53;102561.56;7279063;19;152948;-54
2022/03/07 02:18:03;;;;;;;;;;;;;;;20.09;42.88;102548.59;7285521;19;153356;-53
2022/03/07 02:20:29;;;;;;;;;;;;;;;20.05;42.71;102558.66;7277921;19;152971;-54
2022/03/07 02:22:56;;;;;;;;;;;;;;;20.01;42.92;102544.31;7278963;19;153815;-53
2022/03/07 02:25:23;;;;;;;;;;;;;;;20.01;42.89;102533.09;7279287;19;151865;-53
2022/03/07 02:27:50;;;;;;;;;;;;;;;19.97;42.68;102540.38;7277803;19;153417;-54
2022/03/07 02:30:17;;;;;;;;;;;;;;;19.93;43.04;102534.44;7278308;19;154200;-53
2022/03/07 02:32:43;;;;;;;;;;;;;;;19.92;42.91;102529.94;7279574;19;151999;-54
2022/03/07 02:35:11;;;;;;;;;;;;;;;19.91;42.92;102510.56;7275439;19;152708;-53
2022/03/07 02:37:40;;;;;;;;;;;;;;;19.89;43.04;102510.84;7276784;19;153843;-53
2022/03/07 02:40:07;;;;;;;;;;;;;;;19.88;43.02;102511.09;7284747;19;151956;-53
2022/03/07 02:42:37;;;;;;;;;;;;;;;19.85;43.00;102509.66;7277391;19;153462;-53
2022/03/07 02:45:04;;;;;;;;;;;;;;;19.83;43.08;102502.63;7277752;19;152246;-53
2022/03/07 02:47:31;;;;;;;;;;;;;;;19.82;42.84;102506.53;7279187;19;152849;-53
2022/03/07 02:49:58;;;;;;;;;;;;;;;19.79;42.87;102507.09;7276945;19;153470;-54
2022/03/07 02:52:24;;;;;;;;;;;;;;;19.77;43.27;102498.94;7276067;19;152087;-53
2022/03/07 02:54:51;;;;;;;;;;;;;;;19.76;43.24;102491.63;7278330;19;153179;-54
2022/03/07 02:57:18;;;;;;;;;;;;;;;19.73;42.91;102489.34;7281074;19;153384;-53
2022/03/07 02:59:46;;;;;;;;;;;;;;;19.69;43.24;102485.41;7285700;19;151749;-53
2022/03/07 03:02:13;;;;;;;;;;;;;;;19.68;43.23;102480.03;7292014;19;153420;-54
2022/03/07 03:04:40;;;;;;;;;;;;;;;19.67;43.20;102478.38;7284648;19;151482;-54
2022/03/07 03:07:07;;;;;;;;;;;;;;;19.64;42.92;102468.50;7284226;19;153386;-53
2022/03/07 03:09:34;;;;;;;;;;;;;;;19.64;43.34;102462.06;7283609;19;153316;-53
2022/03/07 03:12:01;;;;;;;;;;;;;;;19.59;43.45;102460.06;7285464;19;151766;-54
2022/03/07 03:14:28;;;;;;;;;;;;;;;19.58;43.56;102463.97;7284456;19;153561;-53
2022/03/07 03:16:54;;;;;;;;;;;;;;;19.57;43.37;102458.63;7283543;19;153495;-53
2022/03/07 03:19:22;;;;;;;;;;;;;;;19.56;43.31;102454.13;7285933;19;151687;-53
2022/03/07 03:21:52;;;;;;;;;;;;;;;19.54;43.54;102458.03;7285149;19;153548;-54
2022/03/07 03:24:18;;;;;;;;;;;;;;;19.53;43.20;102455.53;7290549;19;154046;-54
2022/03/07 03:26:45;;;;;;;;;;;;;;;19.51;43.51;102452.97;7282581;19;153306;-53
2022/03/07 03:29:12;;;;;;;;;;;;;;;19.50;43.23;102456.88;7283308;19;151912;-54
2022/03/07 03:31:39;;;;;;;;;;;;;;;19.50;43.46;102447.63;7283053;19;152000;-53
2022/03/07 03:34:06;;;;;;;;;;;;;;;19.47;43.59;102453.78;7283720;19;152709;-54
2022/03/07 03:36:32;;;;;;;;;;;;;;;19.45;43.48;102454.03;7283337;19;153353;-54
2022/03/07 03:39:01;;;;;;;;;;;;;;;19.44;43.54;102454.31;7284814;19;151932;-53
2022/03/07 03:41:28;;;;;;;;;;;;;;;19.41;43.38;102451.97;7285432;19;153101;-54
2022/03/07 03:43:58;;;;;;;;;;;;;;;19.42;43.87;102456.47;7280321;19;154453;-54
2022/03/07 03:46:24;;;;;;;;;;;;;;;19.41;43.46;102449.19;7292166;19;152010;-53
2022/03/07 03:48:51;;;;;;;;;;;;;;;19.40;43.56;102451.13;7282382;19;153693;-53
2022/03/07 03:51:18;;;;;;;;;;;;;;;19.37;43.50;102448.00;7284039;19;151704;-53
2022/03/07 03:53:45;;;;;;;;;;;;;;;19.37;43.95;102448.00;7282136;19;153241;-54
2022/03/07 03:56:12;;;;;;;;;;;;;;;19.37;43.83;102448.00;7283984;19;154170;-54
2022/03/07 03:58:38;;;;;;;;;;;;;;;19.33;43.71;102442.09;7282804;19;151606;-54
2022/03/07 04:01:05;;;;;;;;;;;;;;;19.29;43.89;102434.47;7285019;19;153325;-53
2022/03/07 04:03:32;;;;;;;;;;;;;;;19.30;43.96;102430.56;7280328;19;154021;-53
2022/03/07 04:06:00;;;;;;;;;;;;;;;19.28;43.95;102438.38;7283710;19;152002;-53
2022/03/07 04:08:27;;;;;;;;;;;;;;;19.27;44.52;102431.09;7289644;19;153691;-54
2022/03/07 04:10:53;;;;;;;;;;;;;;;19.23;44.51;102436.38;7282100;19;151652;-53
2022/03/07 04:13:22;;;;;;;;;;;;;;;19.24;44.34;102442.84;7281431;19;154008;-54
2022/03/07 04:15:49;;;;;;;;;;;;;;;19.22;44.50;102450.63;7277815;19;153406;-53
2022/03/07 04:18:16;;;;;;;;;;;;;;;19.22;44.70;102439.44;7283845;19;151875;-54
2022/03/07 04:20:43;;;;;;;;;;;;;;;19.20;44.65;102442.53;7283372;19;151687;-54
2022/03/07 04:23:09;;;;;;;;;;;;;;;19.19;44.35;102448.38;7282118;19;153964;-54
2022/03/07 04:25:36;;;;;;;;;;;;;;;19.18;44.46;102449.47;7280409;19;151828;-53
2022/03/07 04:28:04;;;;;;;;;;;;;;;19.16;44.81;102448.91;7290194;19;153036;-54
2022/03/07 04:30:32;;;;;;;;;;;;;;;19.16;44.43;102444.16;7280877;19;151625;-54
2022/03/07 04:33:00;;;;;;;;;;;;;;;19.13;44.62;102446.63;7283391;19;152838;-54
2022/03/07 04:35:27;;;;;;;;;;;;;;;19.12;44.75;102444.94;7280504;19;153704;-54
2022/03/07 04:37:54;;;;;;;;;;;;;;;19.09;44.88;102446.28;7281338;19;151848;-54
2022/03/07 04:40:21;;;;;;;;;;;;;;;19.06;44.59;102446.84;7280798;19;153169;-53
2022/03/07 04:42:47;;;;;;;;;;;;;;;19.07;44.78;102440.97;7280384;19;153773;-54
2022/03/07 04:45:14;;;;;;;;;;;;;;;19.06;44.49;102444.03;7281164;19;151593;-54
2022/03/07 04:47:41;;;;;;;;;;;;;;;19.04;44.99;102441.47;7281732;19;153758;-53
2022/03/07 04:50:08;;;;;;;;;;;;;;;19.02;44.89;102445.66;7287133;19;153933;-54
2022/03/07 04:52:35;;;;;;;;;;;;;;;19.00;44.92;102437.50;7280203;19;152621;-54
2022/03/07 04:55:02;;;;;;;;;;;;;;;19.02;44.62;102440.06;7279217;19;153328;-53
2022/03/07 04:57:29;;;;;;;;;;;;;;;18.99;44.58;102434.97;7283077;19;151547;-53
2022/03/07 04:59:56;;;;;;;;;;;;;;;18.97;45.03;102442.81;7281952;19;153330;-53
2022/03/07 05:02:23;;;;;;;;;;;;;;;18.95;44.69;102440.25;7281912;19;154098;-54
2022/03/07 05:04:50;;;;;;;;;;;;;;;18.96;44.84;102439.16;7282623;19;151986;-54
2022/03/07 05:07:17;;;;;;;;;;;;;;;19.01;45.01;102439.22;7280528;19;152660;-53
2022/03/07 05:09:45;;;;;;;;;;;;;;;19.03;45.80;102439.78;7281510;19;153905;-54
2022/03/07 05:12:12;;;;;;;;;;;;;;;19.08;45.53;102445.44;7289287;19;151656;-54
2022/03/07 05:14:39;;;;;;;;;;;;;;;19.14;45.45;102442.72;7278729;19;153350;-53
2022/03/07 05:17:06;;;;;;;;;;;;;;;19.20;45.37;102436.06;7279907;19;151644;-54
2022/03/07 05:19:32;;;;;;;;;;;;;;;19.23;45.92;102425.16;7280354;19;153333;-54
2022/03/07 05:21:59;;;;;;;;;;;;;;;19.30;46.19;102424.97;7280660;19;153479;-53
2022/03/07 05:24:26;;;;;;;;;;;;;;;19.35;46.74;102417.44;7280464;19;151593;-53
2022/03/07 05:26:53;;;;;;;;;;;;;;;19.41;46.58;102421.16;7280309;19;153434;-54
2022/03/07 05:29:20;;;;;;;;;;;;;;;19.46;46.46;102427.69;7278924;19;153703;-54
2022/03/07 05:31:47;;;;;;;;;;;;;;;19.52;46.10;102423.00;7281010;19;151905;-54
2022/03/07 05:34:14;;;;;;;;;;;;;;;19.59;46.30;102422.75;7286572;19;152864;-53
2022/03/07 05:36:41;;;;;;;;;;;;;;;19.65;46.22;102422.53;7277933;19;151598;-54
2022/03/07 05:39:08;;;;;;;;;;;;;;;19.71;45.76;102424.28;7281984;19;152824;-53
2022/03/07 05:41:36;;;;;;;;;;;;;;;19.76;45.94;102424.31;7280470;19;153375;-54
2022/03/07 05:44:04;;;;;;;;;;;;;;;19.83;45.80;102422.16;7281345;19;151497;-54
2022/03/07 05:46:30;;;;;;;;;;;;;;;19.90;45.67;102427.50;7281142;19;153875;-54
2022/03/07 05:48:57;;;;;;;;;;;;;;;19.96;45.78;102424.50;7280742;19;153450;-54
2022/03/07 05:51:25;;;;;;;;;;;;;;;20.03;45.45;102423.44;7281723;19;151542;-53
2022/03/07 05:53:51;;;;;;;;;;;;;;;20.09;45.43;102427.94;7276067;19;153157;-53
2022/03/07 05:56:19;;;;;;;;;;;;;;;20.13;45.20;102415.91;7285369;19;153422;-54
2022/03/07 05:58:46;;;;;;;;;;;;;;;20.19;44.94;102420.44;7277871;19;153496;-53
2022/03/07 06:01:14;;;;;;;;;;;;;;;20.24;44.90;102416.84;7280115;19;153583;-54
2022/03/07 06:03:42;;;;;;;;;;;;;;;20.30;45.11;102419.44;7280055;19;151789;-54
2022/03/07 06:06:08;;;;;;;;;;;;;;;20.36;44.94;102417.50;7280952;19;153555;-54
2022/03/07 06:08:36;;;;;;;;;;;;;;;20.41;45.02;102417.53;7276927;19;153899;-54
2022/03/07 06:11:03;;;;;;;;;;;;;;;20.47;44.62;102413.63;7280890;19;151839;-54
2022/03/07 06:13:30;;;;;;;;;;;;;;;20.52;44.19;102407.22;7280206;19;152934;-53
2022/03/07 06:15:57;;;;;;;;;;;;;;;20.57;44.30;102413.69;7276824;19;154238;-54
2022/03/07 06:18:25;;;;;;;;;;;;;;;20.62;43.98;102404.47;7288362;19;151847;-53
2022/03/07 06:20:52;;;;;;;;;;;;;;;20.67;43.86;102415.72;7276700;19;152516;-53
2022/03/07 06:23:19;;;;;;;;;;;;;;;20.72;43.99;102407.28;7279124;19;152087;-53
2022/03/07 06:25:46;;;;;;;;;;;;;;;20.76;44.12;102406.47;7278561;19;153030;-54
2022/03/07 06:28:14;;;;;;;;;;;;;;;20.81;43.88;102408.44;7276903;19;153532;-53
2022/03/07 06:30:44;;;;;;;;;;;;;;;20.85;43.90;102407.63;7281076;19;151768;-53
2022/03/07 06:33:11;;;;;;;;;;;;;;;20.90;43.71;102404.00;7287205;19;153406;-54
2022/03/07 06:35:38;;;;;;;;;;;;;;;20.95;43.56;102405.97;7284554;19;153245;-54
2022/03/07 06:38:04;;;;;;;;;;;;;;;20.99;43.62;102413.56;7294202;19;151737;-54
2022/03/07 06:40:31;;;;;;;;;;;;;;;21.04;43.34;102407.97;7284319;19;153866;-53
2022/03/07 06:43:00;;;;;;;;;;;;;;;21.08;44.39;102402.63;7284302;19;151623;-54
2022/03/07 06:45:30;;;;;;;;;;;;;;;21.11;44.07;102405.75;7285814;19;152660;-54
2022/03/07 06:47:57;;;;;;;;;;;;;;;21.17;43.88;102406.63;7284716;19;154181;-54
2022/03/07 06:50:28;;;;;;;;;;;;;;;21.20;43.63;102411.72;7282717;19;152040;-53
2022/03/07 06:52:54;;;;;;;;;;;;;;;21.24;43.38;102404.41;7285080;19;152746;-54
2022/03/07 06:55:22;;;;;;;;;;;;;;;21.29;43.55;102405.28;7283773;19;153824;-53
2022/03/07 06:57:49;;;;;;;;;;;;;;;21.33;43.34;102405.56;7285372;19;151925;-54
2022/03/07 07:00:16;;;;;;;;;;;;;;;21.37;43.13;102394.59;7289099;19;153614;-54
2022/03/07 07:02:44;;;;;;;;;;;;;;;21.41;43.37;102402.19;7284559;19;152161;-54
2022/03/07 07:05:12;;;;;;;;;;;;;;;21.44;43.06;102406.44;7283715;19;152877;-54
2022/03/07 07:07:39;;;;;;;;;;;;;;;21.48;42.88;102396.31;7282601;19;153509;-54
2022/03/07 07:10:07;;;;;;;;;;;;;;;21.52;42.97;102391.81;7286046;19;151516;-54
2022/03/07 07:12:34;;;;;;;;;;;;;;;21.54;43.00;102383.91;7284909;19;152694;-53
2022/03/07 07:15:01;;;;;;;;;;;;;;;21.58;42.73;102379.41;7282295;19;153441;-54
2022/03/07 07:17:28;;;;;;;;;;;;;;;21.63;42.79;102379.41;7285006;19;151672;-54
2022/03/07 07:19:55;;;;;;;;;;;;;;;21.66;43.21;102387.31;7283528;19;153533;-53
2022/03/07 07:22:22;;;;;;;;;;;;;;;21.71;43.03;102390.13;7290972;19;154157;-53
2022/03/07 07:24:49;;;;;;;;;;;;;;;21.59;40.42;102383.91;7285101;19;152007;-55
2022/03/07 07:27:16;;;;;;;;;;;;;;;21.60;39.60;102382.81;7281600;19;153478;-54
2022/03/07 07:29:43;;;;;;;;;;;;;;;21.60;40.03;102383.66;7283402;19;151818;-55
2022/03/07 07:32:10;;;;;;;;;;;;;;;21.64;39.65;102384.78;7285408;19;152995;-55
2022/03/07 07:34:37;;;;;;;;;;;;;;;21.55;37.18;102389.28;7281355;19;153261;-54
2022/03/07 07:37:04;;;;;;;;;;;;;;;21.37;36.51;102383.34;7280734;19;152174;-54
2022/03/07 07:39:40;;;;;;;;;;;;;;;21.43;37.20;102380.28;7284290;19;153343;-54
2022/03/07 07:42:07;;;;;;;;;;;;;;;21.46;37.88;102387.28;7280635;19;154724;-54
2022/03/07 07:44:34;;;;;;;;;;;;;;;21.53;37.87;102377.44;7289415;19;152019;-53
2022/03/07 07:47:01;;;;;;;;;;;;;;;21.56;37.88;102376.91;7281881;19;153537;-54
2022/03/07 07:49:30;;;;;;;;;;;;;;;21.61;37.92;102379.72;7281662;19;151963;-54
2022/03/07 07:51:57;;;;;;;;;;;;;;;21.64;38.08;102379.16;7284560;19;153654;-53
2022/03/07 07:54:24;;;;;;;;;;;;;;;21.68;38.20;102387.88;7277553;19;153152;-54
2022/03/07 07:56:51;;;;;;;;;;;;;;;21.72;38.23;102389.81;7281146;19;151599;-55
2022/03/07 07:59:18;;;;;;;;;;;;;;;21.72;38.37;102392.66;7281554;19;153616;-54
2022/03/07 08:01:45;;;;;;;;;;;;;;;21.74;37.87;102389.56;7284291;19;153598;-54
2022/03/07 08:04:12;;;;;;;;;;;;;;;21.73;37.80;102390.69;7284826;19;151772;-54
2022/03/07 08:06:40;;;;;;;;;;;;;;;21.73;38.25;102391.53;7290041;19;153374;-54
2022/03/07 08:09:07;;;;;;;;;;;;;;;21.76;38.19;102394.91;7284878;19;151681;-54
2022/03/07 08:11:34;;;;;;;;;;;;;;;21.74;37.92;102396.03;7284454;19;152955;-55
2022/03/07 08:14:01;;;;;;;;;;;;;;;21.76;37.94;102392.09;7280663;19;153473;-54
2022/03/07 08:16:28;;;;;;;;;;;;;;;21.76;37.85;102392.09;7282597;19;151835;-54
2022/03/07 08:19:01;;;;;;;;;;;;;;;21.76;37.57;102381.66;7284036;19;152909;-54
2022/03/07 08:21:42;;;;;;;;;;;;;;;21.78;37.76;102392.66;7278702;19;152674;-54
2022/03/07 08:24:08;;;;;;;;;;;;;;;21.77;37.74;102393.75;7283345;19;152150;-54
2022/03/07 08:26:35;;;;;;;;;;;;;;;21.77;37.40;102400.25;7284112;19;155206;-54
2022/03/07 08:29:02;;;;;;;;;;;;;;;21.76;37.35;102394.91;7287934;19;151753;-54
2022/03/07 08:31:29;;;;;;;;;;;;;;;21.80;37.75;102393.22;7284180;19;152732;-54
2022/03/07 08:33:55;;;;;;;;;;;;;;;21.80;38.17;102394.06;7280796;19;155623;-54
2022/03/07 08:36:22;;;;;;;;;;;;;;;21.79;37.53;102391.53;7281124;19;151799;-54
2022/03/07 08:38:49;;;;;;;;;;;;;;;21.78;37.40;102390.69;7279078;19;152710;-54
2022/03/07 08:41:20;;;;;;;;;;;;;;;21.76;37.82;102381.66;7280246;19;153396;-54
2022/03/07 08:44:13;;;;;;;;;;;;;;;21.76;37.49;102387.28;7277989;19;152034;-54
2022/03/07 08:46:41;;;;;;;;;;;;;;;21.73;37.25;102385.06;7283242;19;153136;-54
2022/03/07 08:49:08;;;;;;;;;;;;;;;21.73;37.42;102387.88;7287132;19;153625;-54
2022/03/07 08:51:34;;;;;;;;;;;;;;;21.76;37.29;102386.47;7282852;19;152401;-54
2022/03/07 08:54:01;;;;;;;;;;;;;;;21.74;37.72;102389.56;7274140;19;154116;-54
2022/03/07 08:56:28;;;;;;;;;;;;;;;21.76;37.63;102395.72;7280107;19;151716;-54
2022/03/07 08:58:55;;;;;;;;;;;;;;;21.76;37.72;102386.47;7282140;19;153615;-54
2022/03/07 09:01:22;;;;;;;;;;;;;;;21.78;37.29;102389.84;7281211;19;153831;-54
2022/03/07 09:03:49;;;;;;;;;;;;;;;21.80;37.22;102390.41;7251192;19;152808;-54
2022/03/07 09:06:16;;;;;;;;;;;;;;;21.83;37.14;102389.84;7278954;19;152856;-55
2022/03/07 09:08:42;;;;;;;;;;;;;;;21.84;37.42;102375.50;7279253;19;153654;-55
2022/03/07 09:11:09;;;;;;;;;;;;;;;21.87;37.51;102380.53;7290021;19;151703;-54
2022/03/07 09:13:36;;;;;;;;;;;;;;;21.89;37.48;102381.13;7279177;19;153886;-54
2022/03/07 09:16:04;;;;;;;;;;;;;;;21.92;37.29;102374.06;7281635;19;152047;-53
2022/03/07 09:18:31;;;;;;;;;;;;;;;21.94;37.43;102386.75;7282153;19;153515;-54
2022/03/07 09:20:58;;;;;;;;;;;;;;;21.96;37.02;102372.41;7280620;19;154245;-54
2022/03/07 09:23:27;;;;;;;;;;;;;;;21.99;37.05;102367.03;7279955;19;151789;-54
2022/03/07 09:28:50;;;;;;;;;;;;;;;22.03;37.41;102370.97;7279290;19;153503;-54
2022/03/07 09:31:17;;;;;;;;;;;;;;;22.05;36.98;102363.09;7281351;19;152089;-54
2022/03/07 09:33:44;;;;;;;;;;;;;;;22.06;37.04;102369.56;7286047;19;151843;-55
2022/03/07 09:36:11;;;;;;;;;;;;;;;22.07;36.65;102360.00;7280830;19;152115;-54
2022/03/07 09:38:38;;;;;;;;;;;;;;;22.08;36.90;102367.31;7279305;19;153560;-54
2022/03/07 09:41:06;;;;;;;;;;;;;;;22.08;37.16;102362.53;7280397;19;153331;-54
2022/03/07 09:43:35;;;;;;;;;;;;;;;22.06;36.78;102361.97;7279814;19;151752;-54
2022/03/07 09:46:02;;;;;;;;;;;;;;;22.06;36.61;102356.34;7281785;19;153354;-54
2022/03/07 09:48:29;;;;;;;;;;;;;;;22.08;36.51;102358.88;7280068;19;153999;-54
2022/03/07 09:50:56;;;;;;;;;;;;;;;22.07;36.93;102349.59;7279499;19;151568;-54
2022/03/07 09:53:29;;;;;;;;;;;;;;;22.06;36.32;102341.44;7278517;19;152762;-54
2022/03/07 09:55:55;;;;;;;;;;;;;;;22.06;36.48;102355.50;7285916;19;153310;-54
2022/03/07 09:58:22;;;;;;;;;;;;;;;22.05;36.24;102348.19;7277758;19;152681;-54
2022/03/07 10:00:49;;;;;;;;;;;;;;;22.01;35.95;102347.91;7281153;19;153766;-54
2022/03/07 10:03:18;;;;;;;;;;;;;;;21.99;36.00;102354.94;7278261;19;151840;-54
2022/03/07 10:05:47;;;;;;;;;;;;;;;22.00;35.77;102348.19;7276019;19;153310;-55
2022/03/07 10:08:24;;;;;;;;;;;;;;;21.97;36.10;102346.81;7277002;19;153932;-54
2022/03/07 10:10:52;;;;;;;;;;;;;;;21.95;35.75;102351.00;7280314;19;152120;-54
2022/03/07 10:13:20;;;;;;;;;;;;;;;21.94;35.85;102347.34;7278558;19;152914;-54
2022/03/07 10:15:57;;;;;;;;;;;;;;;21.96;35.96;102341.44;7277126;19;153360;-54
2022/03/07 10:18:25;;;;;;;;;;;;;;;21.94;35.77;102336.09;7285253;19;151858;-54
2022/03/07 10:20:53;;;;;;;;;;;;;;;21.95;35.54;102348.19;7278431;19;153897;-54
2022/03/07 10:23:20;;;;;;;;;;;;;;;21.96;35.91;102342.28;7279843;19;151916;-54
2022/03/07 10:25:48;;;;;;;;;;;;;;;21.94;35.66;102336.09;7278163;19;153102;-54
2022/03/07 10:28:16;;;;;;;;;;;;;;;21.89;35.60;102340.88;7279104;19;153404;-54
2022/03/07 10:30:43;;;;;;;;;;;;;;;21.86;35.43;102336.63;7279691;19;151729;-54
2022/03/07 10:33:13;;;;;;;;;;;;;;;21.85;35.45;102340.56;7277288;19;153626;-54
2022/03/07 10:35:43;;;;;;;;;;;;;;;21.81;35.32;102342.28;7275925;19;153775;-54
2022/03/07 10:38:12;;;;;;;;;;;;;;;21.81;35.42;102330.16;7284641;19;151941;-54
2022/03/07 10:40:40;;;;;;;;;;;;;;;21.77;35.38;102327.09;7274958;19;153849;-54
2022/03/07 10:43:07;;;;;;;;;;;;;;;21.73;35.39;102321.19;7276219;19;151865;-55
2022/03/07 10:45:44;;;;;;;;;;;;;;;21.72;35.03;102325.13;7279559;19;152859;-54
2022/03/07 10:48:11;;;;;;;;;;;;;;;21.70;35.05;102318.97;7277416;19;153832;-54
2022/03/07 10:50:38;;;;;;;;;;;;;;;21.66;35.33;102305.75;7277402;19;152037;-54
2022/03/07 10:53:06;;;;;;;;;;;;;;;21.63;35.20;102314.72;7277112;19;153092;-54
2022/03/07 10:55:33;;;;;;;;;;;;;;;21.62;34.80;102307.44;7278379;19;153371;-54
2022/03/07 10:58:08;;;;;;;;;;;;;;;21.58;35.14;102312.75;7277546;19;152006;-54
2022/03/07 11:00:45;;;;;;;;;;;;;;;21.54;35.30;102306.00;7284475;19;151951;-55
2022/03/07 11:03:21;;;;;;;;;;;;;;;21.53;35.03;102301.50;7278869;19;151925;-54
2022/03/07 11:05:49;;;;;;;;;;;;;;;21.49;35.29;102308.81;7278190;19;155230;-54
2022/03/07 11:08:20;;;;;;;;;;;;;;;21.48;35.33;102300.69;7278124;19;153283;-53
2022/03/07 11:10:49;;;;;;;;;;;;;;;21.44;35.08;102308.81;7278741;19;151522;-54
2022/03/07 11:13:17;;;;;;;;;;;;;;;21.40;34.88;102301.22;7276163;19;152906;-54
2022/03/07 11:15:45;;;;;;;;;;;;;;;21.35;34.90;102292.81;7277546;19;154090;-54
2022/03/07 11:18:13;;;;;;;;;;;;;;;21.35;34.86;102295.63;7279713;19;151962;-54
2022/03/07 11:20:41;;;;;;;;;;;;;;;21.33;35.31;102289.44;7282901;19;153576;-55
2022/03/07 11:23:11;;;;;;;;;;;;;;;21.24;35.14;102292.81;7290580;19;153334;-53
2022/03/07 11:25:40;;;;;;;;;;;;;;;21.28;35.09;102281.84;7283921;19;152952;-54
2022/03/07 11:28:08;;;;;;;;;;;;;;;21.23;34.91;102276.22;7282732;19;154094;-54
2022/03/07 11:30:36;;;;;;;;;;;;;;;21.22;35.40;102277.34;7284696;19;152000;-54
2022/03/07 11:33:11;;;;;;;;;;;;;;;21.21;35.41;102278.50;7284576;19;153329;-54
2022/03/07 11:35:43;;;;;;;;;;;;;;;21.18;35.09;102273.41;7280909;19;153197;-54
2022/03/07 11:38:11;;;;;;;;;;;;;;;21.21;34.89;102268.06;7283322;19;151480;-54
2022/03/07 11:40:53;;;;;;;;;;;;;;;21.19;35.18;102270.31;7282644;19;153329;-54
2022/03/07 11:43:20;;;;;;;;;;;;;;;21.18;35.22;102257.38;7284223;19;153501;-54
2022/03/07 11:45:47;;;;;;;;;;;;;;;21.17;35.09;102255.69;7290569;19;151961;-54
2022/03/07 11:48:25;;;;;;;;;;;;;;;21.15;35.17;102246.72;7282566;19;152927;-54
2022/03/07 11:50:52;;;;;;;;;;;;;;;21.17;35.32;102246.41;7285203;19;151838;-54
2022/03/07 11:53:19;;;;;;;;;;;;;;;21.16;34.86;102239.97;7283068;19;153140;-54
2022/03/07 11:55:49;;;;;;;;;;;;;;;21.12;35.11;102235.97;7282093;19;154272;-54
2022/03/07 11:58:26;;;;;;;;;;;;;;;21.11;35.32;102233.47;7281793;19;151620;-54
2022/03/07 12:01:02;;;;;;;;;;;;;;;21.08;35.36;102239.63;7285145;19;152857;-54
2022/03/07 12:03:32;;;;;;;;;;;;;;;21.10;34.96;102228.97;7281534;19;154035;-54
2022/03/07 12:06:01;;;;;;;;;;;;;;;21.06;35.01;102227.84;7283997;19;151573;-54
2022/03/07 12:08:28;;;;;;;;;;;;;;;21.01;35.09;102219.41;7287835;19;152609;-53
2022/03/07 12:11:02;;;;;;;;;;;;;;;21.01;35.35;102202.56;7283793;19;151470;-54
2022/03/07 12:13:44;;;;;;;;;;;;;;;20.96;35.46;102206.22;7281620;19;152723;-54
2022/03/07 12:16:12;;;;;;;;;;;;;;;20.94;35.36;102204.81;7280261;19;151867;-54
2022/03/07 12:18:39;;;;;;;;;;;;;;;20.87;35.52;102205.09;7281756;19;151683;-54
2022/03/07 12:21:06;;;;;;;;;;;;;;;20.88;35.25;102195.53;7283958;19;153081;-54
2022/03/07 12:23:34;;;;;;;;;;;;;;;20.84;35.21;102186.00;7282657;19;154098;-54
2022/03/07 12:26:06;;;;;;;;;;;;;;;20.84;35.60;102186.00;7283427;19;152095;-54
2022/03/07 12:28:35;;;;;;;;;;;;;;;20.82;35.55;102175.03;7280535;19;155079;-54
2022/03/07 12:31:03;;;;;;;;;;;;;;;20.81;35.50;102172.50;7289657;19;153158;-54
2022/03/07 12:33:30;;;;;;;;;;;;;;;20.77;35.52;102166.59;7281222;19;155028;-54